sensor_id;sensor_type;location;lat;lon;timestamp;P1;durP1;ratioP1;P2;durP2;ratioP2
69629;SDS011;56857;52.212;5.496;2022-12-10T00:00:31;51.53;;;21.17;;
69629;SDS011;56857;52.212;5.496;2022-12-10T00:02:57;54.97;;;23.30;;
69629;SDS011;56857;52.212;5.496;2022-12-10T00:05:22;51.72;;;24.48;;
69629;SDS011;56857;52.212;5.496;2022-12-10T00:07:47;45.33;;;23.47;;
69629;SDS011;56857;52.212;5.496;2022-12-10T00:10:13;45.15;;;21.80;;
69629;SDS011;56857;52.212;5.496;2022-12-10T00:12:38;49.17;;;23.20;;
69629;SDS011;56857;52.212;5.496;2022-12-10T00:15:03;45.20;;;20.90;;
69629;SDS011;56857;52.212;5.496;2022-12-10T00:17:29;55.10;;;22.08;;
69629;SDS011;56857;52.212;5.496;2022-12-10T00:19:54;54.63;;;24.88;;
69629;SDS011;56857;52.212;5.496;2022-12-10T00:22:20;51.65;;;21.70;;
69629;SDS011;56857;52.212;5.496;2022-12-10T00:24:45;50.83;;;22.70;;
69629;SDS011;56857;52.212;5.496;2022-12-10T00:27:10;62.20;;;24.70;;
69629;SDS011;56857;52.212;5.496;2022-12-10T00:29:36;49.87;;;24.97;;
69629;SDS011;56857;52.212;5.496;2022-12-10T00:32:01;53.33;;;25.55;;
69629;SDS011;56857;52.212;5.496;2022-12-10T00:34:26;46.90;;;22.98;;
69629;SDS011;56857;52.212;5.496;2022-12-10T00:36:52;53.33;;;27.13;;
69629;SDS011;56857;52.212;5.496;2022-12-10T00:39:18;45.53;;;22.13;;
69629;SDS011;56857;52.212;5.496;2022-12-10T00:41:45;52.15;;;21.88;;
69629;SDS011;56857;52.212;5.496;2022-12-10T00:46:36;48.00;;;20.80;;
69629;SDS011;56857;52.212;5.496;2022-12-10T00:49:02;51.03;;;25.23;;
69629;SDS011;56857;52.212;5.496;2022-12-10T00:51:27;55.22;;;23.02;;
69629;SDS011;56857;52.212;5.496;2022-12-10T00:53:54;50.80;;;24.30;;
69629;SDS011;56857;52.212;5.496;2022-12-10T00:56:22;59.55;;;25.30;;
69629;SDS011;56857;52.212;5.496;2022-12-10T00:58:50;53.65;;;22.27;;
69629;SDS011;56857;52.212;5.496;2022-12-10T01:01:17;56.58;;;24.90;;
69629;SDS011;56857;52.212;5.496;2022-12-10T01:03:56;61.53;;;25.33;;
69629;SDS011;56857;52.212;5.496;2022-12-10T01:06:27;57.90;;;27.15;;
69629;SDS011;56857;52.212;5.496;2022-12-10T01:08:59;55.30;;;25.85;;
69629;SDS011;56857;52.212;5.496;2022-12-10T01:11:29;49.33;;;21.95;;
69629;SDS011;56857;52.212;5.496;2022-12-10T01:13:56;55.70;;;26.02;;
69629;SDS011;56857;52.212;5.496;2022-12-10T01:16:22;54.28;;;25.05;;
69629;SDS011;56857;52.212;5.496;2022-12-10T01:18:48;56.53;;;24.92;;
69629;SDS011;56857;52.212;5.496;2022-12-10T01:23:41;51.55;;;24.38;;
69629;SDS011;56857;52.212;5.496;2022-12-10T01:26:17;60.63;;;26.48;;
69629;SDS011;56857;52.212;5.496;2022-12-10T01:28:44;64.05;;;25.00;;
69629;SDS011;56857;52.212;5.496;2022-12-10T01:33:40;66.93;;;25.80;;
69629;SDS011;56857;52.212;5.496;2022-12-10T01:38:36;65.78;;;25.08;;
69629;SDS011;56857;52.212;5.496;2022-12-10T01:41:02;63.30;;;25.98;;
69629;SDS011;56857;52.212;5.496;2022-12-10T01:43:29;65.85;;;26.58;;
69629;SDS011;56857;52.212;5.496;2022-12-10T01:46:13;62.28;;;24.77;;
69629;SDS011;56857;52.212;5.496;2022-12-10T01:51:03;67.13;;;25.83;;
69629;SDS011;56857;52.212;5.496;2022-12-10T01:55:55;63.22;;;23.77;;
69629;SDS011;56857;52.212;5.496;2022-12-10T01:58:21;77.10;;;28.23;;
69629;SDS011;56857;52.212;5.496;2022-12-10T02:00:57;62.97;;;25.73;;
69629;SDS011;56857;52.212;5.496;2022-12-10T02:04:04;69.03;;;26.73;;
69629;SDS011;56857;52.212;5.496;2022-12-10T02:11:57;73.78;;;28.40;;
69629;SDS011;56857;52.212;5.496;2022-12-10T02:17:24;72.97;;;28.95;;
69629;SDS011;56857;52.212;5.496;2022-12-10T02:22:29;62.78;;;27.52;;
69629;SDS011;56857;52.212;5.496;2022-12-10T02:24:58;71.00;;;25.95;;
69629;SDS011;56857;52.212;5.496;2022-12-10T02:30:05;65.55;;;27.00;;
69629;SDS011;56857;52.212;5.496;2022-12-10T02:34:59;69.05;;;28.63;;
69629;SDS011;56857;52.212;5.496;2022-12-10T02:37:30;69.07;;;27.40;;
69629;SDS011;56857;52.212;5.496;2022-12-10T02:39:59;72.15;;;26.30;;
69629;SDS011;56857;52.212;5.496;2022-12-10T02:42:30;73.28;;;26.55;;
69629;SDS011;56857;52.212;5.496;2022-12-10T02:44:56;71.13;;;28.42;;
69629;SDS011;56857;52.212;5.496;2022-12-10T02:47:23;65.53;;;26.50;;
69629;SDS011;56857;52.212;5.496;2022-12-10T02:49:50;68.95;;;27.73;;
69629;SDS011;56857;52.212;5.496;2022-12-10T02:52:19;62.45;;;26.05;;
69629;SDS011;56857;52.212;5.496;2022-12-10T02:54:46;66.93;;;25.75;;
69629;SDS011;56857;52.212;5.496;2022-12-10T03:02:38;58.53;;;25.85;;
69629;SDS011;56857;52.212;5.496;2022-12-10T03:05:14;68.88;;;24.17;;
69629;SDS011;56857;52.212;5.496;2022-12-10T03:07:49;62.53;;;24.20;;
69629;SDS011;56857;52.212;5.496;2022-12-10T03:10:48;57.15;;;22.42;;
69629;SDS011;56857;52.212;5.496;2022-12-10T03:13:23;101.53;;;25.40;;
69629;SDS011;56857;52.212;5.496;2022-12-10T03:16:04;69.45;;;24.70;;
69629;SDS011;56857;52.212;5.496;2022-12-10T03:20:57;59.22;;;21.45;;
69629;SDS011;56857;52.212;5.496;2022-12-10T03:23:27;62.50;;;25.40;;
69629;SDS011;56857;52.212;5.496;2022-12-10T03:25:54;57.10;;;23.15;;
69629;SDS011;56857;52.212;5.496;2022-12-10T03:30:45;54.38;;;20.63;;
69629;SDS011;56857;52.212;5.496;2022-12-10T03:33:12;62.92;;;24.58;;
69629;SDS011;56857;52.212;5.496;2022-12-10T03:38:05;61.13;;;21.63;;
69629;SDS011;56857;52.212;5.496;2022-12-10T03:42:56;58.90;;;23.95;;
69629;SDS011;56857;52.212;5.496;2022-12-10T03:45:21;67.05;;;23.30;;
69629;SDS011;56857;52.212;5.496;2022-12-10T03:50:12;56.47;;;23.75;;
69629;SDS011;56857;52.212;5.496;2022-12-10T03:55:03;56.50;;;22.80;;
69629;SDS011;56857;52.212;5.496;2022-12-10T03:57:29;57.53;;;22.25;;
69629;SDS011;56857;52.212;5.496;2022-12-10T03:59:54;51.83;;;21.52;;
69629;SDS011;56857;52.212;5.496;2022-12-10T04:02:20;54.20;;;23.30;;
69629;SDS011;56857;52.212;5.496;2022-12-10T04:07:10;59.33;;;20.23;;
69629;SDS011;56857;52.212;5.496;2022-12-10T04:12:01;56.28;;;23.02;;
69629;SDS011;56857;52.212;5.496;2022-12-10T04:14:27;51.65;;;21.42;;
69629;SDS011;56857;52.212;5.496;2022-12-10T04:19:18;46.87;;;18.90;;
69629;SDS011;56857;52.212;5.496;2022-12-10T04:21:44;51.30;;;20.65;;
69629;SDS011;56857;52.212;5.496;2022-12-10T04:24:11;53.45;;;21.77;;
69629;SDS011;56857;52.212;5.496;2022-12-10T04:26:37;51.50;;;20.90;;
69629;SDS011;56857;52.212;5.496;2022-12-10T04:29:03;61.17;;;24.48;;
69629;SDS011;56857;52.212;5.496;2022-12-10T04:31:29;62.03;;;21.13;;
69629;SDS011;56857;52.212;5.496;2022-12-10T04:36:20;47.20;;;16.93;;
69629;SDS011;56857;52.212;5.496;2022-12-10T04:38:45;66.20;;;21.03;;
69629;SDS011;56857;52.212;5.496;2022-12-10T04:41:10;66.63;;;23.58;;
69629;SDS011;56857;52.212;5.496;2022-12-10T04:43:36;66.72;;;22.75;;
69629;SDS011;56857;52.212;5.496;2022-12-10T04:46:01;53.80;;;22.48;;
69629;SDS011;56857;52.212;5.496;2022-12-10T04:48:26;66.75;;;23.60;;
69629;SDS011;56857;52.212;5.496;2022-12-10T04:50:52;65.15;;;23.25;;
69629;SDS011;56857;52.212;5.496;2022-12-10T04:53:17;52.53;;;18.92;;
69629;SDS011;56857;52.212;5.496;2022-12-10T04:55:42;59.47;;;20.52;;
69629;SDS011;56857;52.212;5.496;2022-12-10T04:58:08;52.55;;;22.17;;
69629;SDS011;56857;52.212;5.496;2022-12-10T05:00:33;46.05;;;18.52;;
69629;SDS011;56857;52.212;5.496;2022-12-10T05:02:58;50.08;;;20.17;;
69629;SDS011;56857;52.212;5.496;2022-12-10T05:05:24;51.75;;;21.55;;
69629;SDS011;56857;52.212;5.496;2022-12-10T05:07:49;53.35;;;21.17;;
69629;SDS011;56857;52.212;5.496;2022-12-10T05:12:41;58.35;;;21.73;;
69629;SDS011;56857;52.212;5.496;2022-12-10T05:15:06;58.70;;;19.98;;
69629;SDS011;56857;52.212;5.496;2022-12-10T05:17:32;58.22;;;21.90;;
69629;SDS011;56857;52.212;5.496;2022-12-10T05:19:58;58.63;;;20.65;;
69629;SDS011;56857;52.212;5.496;2022-12-10T05:22:24;55.78;;;19.63;;
69629;SDS011;56857;52.212;5.496;2022-12-10T05:24:50;52.78;;;19.23;;
69629;SDS011;56857;52.212;5.496;2022-12-10T05:27:15;61.85;;;19.42;;
69629;SDS011;56857;52.212;5.496;2022-12-10T05:29:42;56.70;;;20.40;;
69629;SDS011;56857;52.212;5.496;2022-12-10T05:32:07;49.33;;;18.40;;
69629;SDS011;56857;52.212;5.496;2022-12-10T05:34:32;55.97;;;21.80;;
69629;SDS011;56857;52.212;5.496;2022-12-10T05:36:57;55.97;;;21.63;;
69629;SDS011;56857;52.212;5.496;2022-12-10T05:39:24;46.90;;;20.60;;
69629;SDS011;56857;52.212;5.496;2022-12-10T05:41:49;56.70;;;20.45;;
69629;SDS011;56857;52.212;5.496;2022-12-10T05:44:15;51.40;;;21.75;;
69629;SDS011;56857;52.212;5.496;2022-12-10T05:46:40;54.47;;;19.45;;
69629;SDS011;56857;52.212;5.496;2022-12-10T05:49:07;48.65;;;19.85;;
69629;SDS011;56857;52.212;5.496;2022-12-10T05:51:33;54.53;;;22.08;;
69629;SDS011;56857;52.212;5.496;2022-12-10T05:54:00;80.78;;;21.92;;
69629;SDS011;56857;52.212;5.496;2022-12-10T05:56:26;57.10;;;22.05;;
69629;SDS011;56857;52.212;5.496;2022-12-10T05:58:53;55.92;;;22.40;;
69629;SDS011;56857;52.212;5.496;2022-12-10T06:01:22;57.97;;;22.08;;
69629;SDS011;56857;52.212;5.496;2022-12-10T06:03:50;57.38;;;21.85;;
69629;SDS011;56857;52.212;5.496;2022-12-10T06:06:19;65.65;;;22.58;;
69629;SDS011;56857;52.212;5.496;2022-12-10T06:08:46;51.50;;;23.90;;
69629;SDS011;56857;52.212;5.496;2022-12-10T06:11:11;62.90;;;23.13;;
69629;SDS011;56857;52.212;5.496;2022-12-10T06:13:36;63.10;;;22.67;;
69629;SDS011;56857;52.212;5.496;2022-12-10T06:18:31;57.35;;;23.35;;
69629;SDS011;56857;52.212;5.496;2022-12-10T06:20:57;67.25;;;24.27;;
69629;SDS011;56857;52.212;5.496;2022-12-10T06:23:22;65.00;;;23.27;;
69629;SDS011;56857;52.212;5.496;2022-12-10T06:25:48;56.28;;;22.05;;
69629;SDS011;56857;52.212;5.496;2022-12-10T06:28:14;61.35;;;22.15;;
69629;SDS011;56857;52.212;5.496;2022-12-10T06:30:39;56.33;;;21.02;;
69629;SDS011;56857;52.212;5.496;2022-12-10T06:33:05;68.25;;;23.85;;
69629;SDS011;56857;52.212;5.496;2022-12-10T06:35:30;58.92;;;24.85;;
69629;SDS011;56857;52.212;5.496;2022-12-10T06:37:58;77.05;;;24.10;;
69629;SDS011;56857;52.212;5.496;2022-12-10T06:40:23;69.25;;;24.85;;
69629;SDS011;56857;52.212;5.496;2022-12-10T06:42:50;66.80;;;24.35;;
69629;SDS011;56857;52.212;5.496;2022-12-10T06:45:16;61.05;;;21.88;;
69629;SDS011;56857;52.212;5.496;2022-12-10T06:47:41;54.85;;;21.98;;
69629;SDS011;56857;52.212;5.496;2022-12-10T06:50:07;67.55;;;21.27;;
69629;SDS011;56857;52.212;5.496;2022-12-10T06:52:33;56.25;;;22.35;;
69629;SDS011;56857;52.212;5.496;2022-12-10T06:54:58;60.15;;;24.67;;
69629;SDS011;56857;52.212;5.496;2022-12-10T06:57:25;95.18;;;22.15;;
69629;SDS011;56857;52.212;5.496;2022-12-10T06:59:50;63.05;;;23.13;;
69629;SDS011;56857;52.212;5.496;2022-12-10T07:02:18;58.30;;;22.13;;
69629;SDS011;56857;52.212;5.496;2022-12-10T07:04:43;54.42;;;19.83;;
69629;SDS011;56857;52.212;5.496;2022-12-10T07:07:08;66.43;;;20.50;;
69629;SDS011;56857;52.212;5.496;2022-12-10T07:09:34;52.42;;;19.65;;
69629;SDS011;56857;52.212;5.496;2022-12-10T07:12:01;57.38;;;24.23;;
69629;SDS011;56857;52.212;5.496;2022-12-10T07:14:27;62.17;;;20.38;;
69629;SDS011;56857;52.212;5.496;2022-12-10T07:16:52;48.20;;;20.50;;
69629;SDS011;56857;52.212;5.496;2022-12-10T07:19:18;48.20;;;18.90;;
69629;SDS011;56857;52.212;5.496;2022-12-10T07:21:43;47.83;;;20.10;;
69629;SDS011;56857;52.212;5.496;2022-12-10T07:24:10;48.78;;;17.00;;
69629;SDS011;56857;52.212;5.496;2022-12-10T07:26:38;51.97;;;19.27;;
69629;SDS011;56857;52.212;5.496;2022-12-10T07:29:05;48.90;;;21.52;;
69629;SDS011;56857;52.212;5.496;2022-12-10T07:31:33;49.85;;;20.33;;
69629;SDS011;56857;52.212;5.496;2022-12-10T07:33:59;59.10;;;22.17;;
69629;SDS011;56857;52.212;5.496;2022-12-10T07:36:30;48.40;;;18.85;;
69629;SDS011;56857;52.212;5.496;2022-12-10T07:38:56;46.88;;;19.63;;
69629;SDS011;56857;52.212;5.496;2022-12-10T07:41:35;50.63;;;17.70;;
69629;SDS011;56857;52.212;5.496;2022-12-10T07:44:01;47.35;;;20.30;;
69629;SDS011;56857;52.212;5.496;2022-12-10T07:46:29;54.38;;;21.75;;
69629;SDS011;56857;52.212;5.496;2022-12-10T07:48:56;46.90;;;19.00;;
69629;SDS011;56857;52.212;5.496;2022-12-10T07:51:25;53.92;;;19.25;;
69629;SDS011;56857;52.212;5.496;2022-12-10T07:53:52;43.60;;;17.15;;
69629;SDS011;56857;52.212;5.496;2022-12-10T07:56:19;44.65;;;19.60;;
69629;SDS011;56857;52.212;5.496;2022-12-10T07:58:45;49.45;;;19.92;;
69629;SDS011;56857;52.212;5.496;2022-12-10T08:01:12;53.78;;;20.98;;
69629;SDS011;56857;52.212;5.496;2022-12-10T08:03:42;52.38;;;20.83;;
69629;SDS011;56857;52.212;5.496;2022-12-10T08:06:09;53.03;;;21.35;;
69629;SDS011;56857;52.212;5.496;2022-12-10T08:08:38;48.38;;;18.70;;
69629;SDS011;56857;52.212;5.496;2022-12-10T08:11:04;51.38;;;18.65;;
69629;SDS011;56857;52.212;5.496;2022-12-10T08:16:15;55.45;;;21.92;;
69629;SDS011;56857;52.212;5.496;2022-12-10T08:18:43;50.72;;;18.60;;
69629;SDS011;56857;52.212;5.496;2022-12-10T08:23:40;53.15;;;18.15;;
69629;SDS011;56857;52.212;5.496;2022-12-10T08:26:09;64.45;;;23.00;;
69629;SDS011;56857;52.212;5.496;2022-12-10T08:28:37;44.97;;;17.40;;
69629;SDS011;56857;52.212;5.496;2022-12-10T08:33:29;56.58;;;21.52;;
69629;SDS011;56857;52.212;5.496;2022-12-10T08:35:58;48.85;;;19.23;;
69629;SDS011;56857;52.212;5.496;2022-12-10T08:38:24;52.25;;;18.77;;
69629;SDS011;56857;52.212;5.496;2022-12-10T08:40:50;48.97;;;19.00;;
69629;SDS011;56857;52.212;5.496;2022-12-10T08:43:15;52.55;;;19.23;;
69629;SDS011;56857;52.212;5.496;2022-12-10T08:45:41;50.65;;;19.23;;
69629;SDS011;56857;52.212;5.496;2022-12-10T08:48:07;58.07;;;20.33;;
69629;SDS011;56857;52.212;5.496;2022-12-10T08:50:32;63.63;;;23.80;;
69629;SDS011;56857;52.212;5.496;2022-12-10T08:52:59;55.45;;;19.67;;
69629;SDS011;56857;52.212;5.496;2022-12-10T08:55:25;59.47;;;21.08;;
69629;SDS011;56857;52.212;5.496;2022-12-10T08:57:50;60.72;;;22.45;;
69629;SDS011;56857;52.212;5.496;2022-12-10T09:00:16;64.00;;;22.95;;
69629;SDS011;56857;52.212;5.496;2022-12-10T09:02:41;54.63;;;22.77;;
69629;SDS011;56857;52.212;5.496;2022-12-10T09:05:07;55.22;;;23.00;;
69629;SDS011;56857;52.212;5.496;2022-12-10T09:07:32;50.55;;;21.33;;
69629;SDS011;56857;52.212;5.496;2022-12-10T09:09:58;46.70;;;18.98;;
69629;SDS011;56857;52.212;5.496;2022-12-10T09:12:24;67.20;;;22.25;;
69629;SDS011;56857;52.212;5.496;2022-12-10T09:14:49;57.28;;;22.40;;
69629;SDS011;56857;52.212;5.496;2022-12-10T09:17:15;69.18;;;24.42;;
69629;SDS011;56857;52.212;5.496;2022-12-10T09:19:40;74.90;;;25.00;;
69629;SDS011;56857;52.212;5.496;2022-12-10T09:22:07;60.50;;;23.10;;
69629;SDS011;56857;52.212;5.496;2022-12-10T09:24:32;57.33;;;23.48;;
69629;SDS011;56857;52.212;5.496;2022-12-10T09:29:23;52.47;;;18.92;;
69629;SDS011;56857;52.212;5.496;2022-12-10T09:31:51;48.95;;;17.00;;
69629;SDS011;56857;52.212;5.496;2022-12-10T09:34:17;50.30;;;20.08;;
69629;SDS011;56857;52.212;5.496;2022-12-10T09:36:43;49.33;;;17.20;;
69629;SDS011;56857;52.212;5.496;2022-12-10T09:46:56;49.95;;;19.05;;
69629;SDS011;56857;52.212;5.496;2022-12-10T09:52:16;52.03;;;18.40;;
69629;SDS011;56857;52.212;5.496;2022-12-10T09:54:45;57.75;;;19.88;;
69629;SDS011;56857;52.212;5.496;2022-12-10T09:57:18;51.95;;;19.80;;
69629;SDS011;56857;52.212;5.496;2022-12-10T09:59:48;54.67;;;20.80;;
69629;SDS011;56857;52.212;5.496;2022-12-10T10:04:49;54.20;;;19.95;;
69629;SDS011;56857;52.212;5.496;2022-12-10T10:07:26;54.20;;;20.30;;
69629;SDS011;56857;52.212;5.496;2022-12-10T10:09:56;46.00;;;18.95;;
69629;SDS011;56857;52.212;5.496;2022-12-10T10:12:30;49.17;;;18.15;;
69629;SDS011;56857;52.212;5.496;2022-12-10T10:14:58;52.28;;;20.05;;
69629;SDS011;56857;52.212;5.496;2022-12-10T10:17:35;49.47;;;18.75;;
69629;SDS011;56857;52.212;5.496;2022-12-10T10:20:02;59.20;;;19.73;;
69629;SDS011;56857;52.212;5.496;2022-12-10T10:22:28;47.17;;;17.90;;
69629;SDS011;56857;52.212;5.496;2022-12-10T10:24:53;53.38;;;19.88;;
69629;SDS011;56857;52.212;5.496;2022-12-10T10:27:22;53.58;;;17.25;;
69629;SDS011;56857;52.212;5.496;2022-12-10T10:29:51;48.60;;;17.30;;
69629;SDS011;56857;52.212;5.496;2022-12-10T10:32:21;63.10;;;19.80;;
69629;SDS011;56857;52.212;5.496;2022-12-10T10:34:53;60.28;;;21.45;;
69629;SDS011;56857;52.212;5.496;2022-12-10T10:37:28;74.50;;;21.67;;
69629;SDS011;56857;52.212;5.496;2022-12-10T10:39:56;60.97;;;21.27;;
69629;SDS011;56857;52.212;5.496;2022-12-10T10:45:03;62.90;;;20.45;;
69629;SDS011;56857;52.212;5.496;2022-12-10T10:47:32;52.45;;;18.42;;
69629;SDS011;56857;52.212;5.496;2022-12-10T10:50:00;57.83;;;22.00;;
69629;SDS011;56857;52.212;5.496;2022-12-10T10:54:55;53.35;;;18.45;;
69629;SDS011;56857;52.212;5.496;2022-12-10T10:57:24;54.78;;;18.85;;
69629;SDS011;56857;52.212;5.496;2022-12-10T11:00:04;60.55;;;18.25;;
69629;SDS011;56857;52.212;5.496;2022-12-10T11:02:35;56.38;;;17.90;;
69629;SDS011;56857;52.212;5.496;2022-12-10T11:05:07;47.70;;;16.88;;
69629;SDS011;56857;52.212;5.496;2022-12-10T11:07:40;52.35;;;19.02;;
69629;SDS011;56857;52.212;5.496;2022-12-10T11:12:56;42.50;;;16.30;;
69629;SDS011;56857;52.212;5.496;2022-12-10T11:17:50;56.00;;;19.40;;
69629;SDS011;56857;52.212;5.496;2022-12-10T11:22:51;50.17;;;18.70;;
69629;SDS011;56857;52.212;5.496;2022-12-10T11:25:20;59.72;;;19.75;;
69629;SDS011;56857;52.212;5.496;2022-12-10T11:33:58;51.85;;;20.33;;
69629;SDS011;56857;52.212;5.496;2022-12-10T11:37:13;48.08;;;18.38;;
69629;SDS011;56857;52.212;5.496;2022-12-10T11:42:24;57.00;;;17.30;;
69629;SDS011;56857;52.212;5.496;2022-12-10T11:46:13;49.95;;;19.25;;
69629;SDS011;56857;52.212;5.496;2022-12-10T11:48:34;60.28;;;19.50;;
69629;SDS011;56857;52.212;5.496;2022-12-10T11:51:34;70.82;;;18.33;;
69629;SDS011;56857;52.212;5.496;2022-12-10T11:56:54;47.97;;;17.27;;
69629;SDS011;56857;52.212;5.496;2022-12-10T12:08:24;51.15;;;16.58;;
69629;SDS011;56857;52.212;5.496;2022-12-10T12:14:12;57.35;;;18.77;;
69629;SDS011;56857;52.212;5.496;2022-12-10T12:17:03;56.53;;;18.85;;
69629;SDS011;56857;52.212;5.496;2022-12-10T12:19:33;54.03;;;17.75;;
69629;SDS011;56857;52.212;5.496;2022-12-10T12:25:02;55.17;;;20.98;;
69629;SDS011;56857;52.212;5.496;2022-12-10T12:27:39;50.35;;;18.38;;
69629;SDS011;56857;52.212;5.496;2022-12-10T12:30:19;54.17;;;18.67;;
69629;SDS011;56857;52.212;5.496;2022-12-10T12:32:51;46.22;;;18.67;;
69629;SDS011;56857;52.212;5.496;2022-12-10T12:38:15;49.60;;;18.58;;
69629;SDS011;56857;52.212;5.496;2022-12-10T12:43:34;52.80;;;19.42;;
69629;SDS011;56857;52.212;5.496;2022-12-10T12:46:12;45.13;;;15.27;;
69629;SDS011;56857;52.212;5.496;2022-12-10T12:54:38;46.47;;;15.57;;
69629;SDS011;56857;52.212;5.496;2022-12-10T12:57:18;56.05;;;19.33;;
69629;SDS011;56857;52.212;5.496;2022-12-10T13:00:08;48.97;;;16.90;;
69629;SDS011;56857;52.212;5.496;2022-12-10T13:05:40;49.70;;;19.38;;
69629;SDS011;56857;52.212;5.496;2022-12-10T13:08:22;58.05;;;20.67;;
69629;SDS011;56857;52.212;5.496;2022-12-10T13:15:53;58.83;;;19.83;;
69629;SDS011;56857;52.212;5.496;2022-12-10T13:18:20;53.03;;;20.13;;
69629;SDS011;56857;52.212;5.496;2022-12-10T13:23:50;53.97;;;20.65;;
69629;SDS011;56857;52.212;5.496;2022-12-10T13:26:28;57.33;;;21.50;;
69629;SDS011;56857;52.212;5.496;2022-12-10T13:28:57;52.67;;;19.73;;
69629;SDS011;56857;52.212;5.496;2022-12-10T13:31:38;49.58;;;18.95;;
69629;SDS011;56857;52.212;5.496;2022-12-10T13:34:05;48.60;;;20.25;;
69629;SDS011;56857;52.212;5.496;2022-12-10T13:39:12;49.72;;;19.25;;
69629;SDS011;56857;52.212;5.496;2022-12-10T13:44:37;49.70;;;19.55;;
69629;SDS011;56857;52.212;5.496;2022-12-10T13:47:32;55.03;;;17.50;;
69629;SDS011;56857;52.212;5.496;2022-12-10T14:10:51;66.28;;;17.10;;
69629;SDS011;56857;52.212;5.496;2022-12-10T14:13:19;44.20;;;16.67;;
69629;SDS011;56857;52.212;5.496;2022-12-10T14:15:54;44.78;;;18.83;;
69629;SDS011;56857;52.212;5.496;2022-12-10T14:18:21;43.45;;;16.90;;
69629;SDS011;56857;52.212;5.496;2022-12-10T14:20:49;43.95;;;16.85;;
69629;SDS011;56857;52.212;5.496;2022-12-10T14:23:22;49.10;;;18.05;;
69629;SDS011;56857;52.212;5.496;2022-12-10T14:25:52;48.70;;;18.02;;
69629;SDS011;56857;52.212;5.496;2022-12-10T14:30:44;47.10;;;17.45;;
69629;SDS011;56857;52.212;5.496;2022-12-10T14:33:14;53.53;;;19.40;;
69629;SDS011;56857;52.212;5.496;2022-12-10T14:35:50;55.22;;;18.67;;
69629;SDS011;56857;52.212;5.496;2022-12-10T14:38:22;54.85;;;20.20;;
69629;SDS011;56857;52.212;5.496;2022-12-10T14:40:52;56.47;;;21.90;;
69629;SDS011;56857;52.212;5.496;2022-12-10T14:43:23;53.00;;;19.30;;
69629;SDS011;56857;52.212;5.496;2022-12-10T14:45:55;45.53;;;19.40;;
69629;SDS011;56857;52.212;5.496;2022-12-10T14:48:23;48.33;;;20.17;;
69629;SDS011;56857;52.212;5.496;2022-12-10T14:50:50;53.70;;;20.42;;
69629;SDS011;56857;52.212;5.496;2022-12-10T14:53:17;52.78;;;20.77;;
69629;SDS011;56857;52.212;5.496;2022-12-10T14:55:45;50.97;;;22.38;;
69629;SDS011;56857;52.212;5.496;2022-12-10T15:01:16;54.28;;;24.25;;
69629;SDS011;56857;52.212;5.496;2022-12-10T15:03:47;45.25;;;17.15;;
69629;SDS011;56857;52.212;5.496;2022-12-10T15:08:42;49.00;;;18.45;;
69629;SDS011;56857;52.212;5.496;2022-12-10T15:13:42;55.53;;;20.33;;
69629;SDS011;56857;52.212;5.496;2022-12-10T15:16:27;55.47;;;18.45;;
69629;SDS011;56857;52.212;5.496;2022-12-10T15:19:06;69.68;;;28.23;;
69629;SDS011;56857;52.212;5.496;2022-12-10T15:21:33;57.42;;;22.88;;
69629;SDS011;56857;52.212;5.496;2022-12-10T15:24:07;64.15;;;27.05;;
69629;SDS011;56857;52.212;5.496;2022-12-10T15:26:42;66.35;;;23.73;;
69629;SDS011;56857;52.212;5.496;2022-12-10T15:32:23;62.20;;;22.10;;
69629;SDS011;56857;52.212;5.496;2022-12-10T15:34:57;73.13;;;25.42;;
69629;SDS011;56857;52.212;5.496;2022-12-10T15:37:26;56.55;;;19.55;;
69629;SDS011;56857;52.212;5.496;2022-12-10T15:42:35;58.30;;;22.70;;
69629;SDS011;56857;52.212;5.496;2022-12-10T15:45:23;65.38;;;24.85;;
69629;SDS011;56857;52.212;5.496;2022-12-10T15:47:50;70.45;;;27.58;;
69629;SDS011;56857;52.212;5.496;2022-12-10T15:52:41;59.67;;;23.52;;
69629;SDS011;56857;52.212;5.496;2022-12-10T15:57:33;67.15;;;25.80;;
69629;SDS011;56857;52.212;5.496;2022-12-10T16:00:07;87.43;;;28.98;;
69629;SDS011;56857;52.212;5.496;2022-12-10T16:05:28;66.35;;;21.73;;
69629;SDS011;56857;52.212;5.496;2022-12-10T16:07:56;89.25;;;31.17;;
69629;SDS011;56857;52.212;5.496;2022-12-10T16:10:25;105.63;;;32.90;;
69629;SDS011;56857;52.212;5.496;2022-12-10T16:12:56;88.20;;;30.08;;
69629;SDS011;56857;52.212;5.496;2022-12-10T16:15:28;68.32;;;22.98;;
69629;SDS011;56857;52.212;5.496;2022-12-10T16:17:56;75.82;;;25.55;;
69629;SDS011;56857;52.212;5.496;2022-12-10T16:20:25;67.15;;;23.48;;
69629;SDS011;56857;52.212;5.496;2022-12-10T16:22:52;64.15;;;23.40;;
69629;SDS011;56857;52.212;5.496;2022-12-10T16:25:19;62.42;;;18.40;;
69629;SDS011;56857;52.212;5.496;2022-12-10T16:27:45;59.15;;;20.95;;
69629;SDS011;56857;52.212;5.496;2022-12-10T16:32:49;64.07;;;20.63;;
69629;SDS011;56857;52.212;5.496;2022-12-10T16:37:41;66.38;;;19.33;;
69629;SDS011;56857;52.212;5.496;2022-12-10T16:40:08;74.10;;;21.70;;
69629;SDS011;56857;52.212;5.496;2022-12-10T16:42:34;67.50;;;21.60;;
69629;SDS011;56857;52.212;5.496;2022-12-10T16:44:59;67.57;;;22.48;;
69629;SDS011;56857;52.212;5.496;2022-12-10T16:47:24;72.43;;;23.25;;
69629;SDS011;56857;52.212;5.496;2022-12-10T16:49:50;64.78;;;21.05;;
69629;SDS011;56857;52.212;5.496;2022-12-10T16:54:42;58.10;;;20.48;;
69629;SDS011;56857;52.212;5.496;2022-12-10T16:59:39;73.13;;;21.73;;
69629;SDS011;56857;52.212;5.496;2022-12-10T17:02:14;68.15;;;22.42;;
69629;SDS011;56857;52.212;5.496;2022-12-10T17:04:42;60.25;;;21.15;;
69629;SDS011;56857;52.212;5.496;2022-12-10T17:09:35;66.80;;;21.02;;
69629;SDS011;56857;52.212;5.496;2022-12-10T17:12:01;64.38;;;20.05;;
69629;SDS011;56857;52.212;5.496;2022-12-10T17:14:27;66.70;;;23.10;;
69629;SDS011;56857;52.212;5.496;2022-12-10T17:16:56;70.35;;;19.30;;
69629;SDS011;56857;52.212;5.496;2022-12-10T17:19:29;59.20;;;22.02;;
69629;SDS011;56857;52.212;5.496;2022-12-10T17:21:57;61.42;;;20.88;;
69629;SDS011;56857;52.212;5.496;2022-12-10T17:24:23;62.75;;;20.02;;
69629;SDS011;56857;52.212;5.496;2022-12-10T17:29:16;63.45;;;22.48;;
69629;SDS011;56857;52.212;5.496;2022-12-10T17:31:45;62.17;;;22.23;;
69629;SDS011;56857;52.212;5.496;2022-12-10T17:36:37;61.33;;;20.52;;
69629;SDS011;56857;52.212;5.496;2022-12-10T17:39:05;55.95;;;20.67;;
69629;SDS011;56857;52.212;5.496;2022-12-10T17:41:31;51.45;;;18.60;;
69629;SDS011;56857;52.212;5.496;2022-12-10T17:46:24;60.15;;;21.33;;
69629;SDS011;56857;52.212;5.496;2022-12-10T17:48:51;66.97;;;21.20;;
69629;SDS011;56857;52.212;5.496;2022-12-10T17:51:17;60.65;;;20.48;;
69629;SDS011;56857;52.212;5.496;2022-12-10T17:56:15;59.70;;;19.23;;
69629;SDS011;56857;52.212;5.496;2022-12-10T17:58:45;58.60;;;22.20;;
69629;SDS011;56857;52.212;5.496;2022-12-10T18:01:11;55.55;;;18.88;;
69629;SDS011;56857;52.212;5.496;2022-12-10T18:06:24;57.35;;;19.20;;
69629;SDS011;56857;52.212;5.496;2022-12-10T18:08:50;58.42;;;20.10;;
69629;SDS011;56857;52.212;5.496;2022-12-10T18:13:42;65.75;;;19.15;;
69629;SDS011;56857;52.212;5.496;2022-12-10T18:18:37;58.72;;;21.33;;
69629;SDS011;56857;52.212;5.496;2022-12-10T18:23:28;51.28;;;22.05;;